Flugplatz Westerland Sylt

Bericht für EDXW

vom 30.09. um 21:20 UTC

Wind 18 kt aus 190°

Sichtweite 10 km oder mehr

aufgebrochene Bewölkung in 24000 ft

Temperatur 14.0°C

Taupunkt 10.0°C

Luftfeuchtigkeit 77%

Luftdruck 1003 hPa

EDXW 302120Z AUTO 19018KT 9999 // BKN240/// 14/10 Q1003
Keine Prognose (TAF) verfügbar.
Impressum